sensor_id;sensor_type;location;lat;lon;timestamp;P1;durP1;ratioP1;P2;durP2;ratioP2
20870;SDS011;10595;51.218;3.452;2023-07-20T00:02:02;9.13;;;4.10;;
20870;SDS011;10595;51.218;3.452;2023-07-20T00:04:30;10.53;;;3.90;;
20870;SDS011;10595;51.218;3.452;2023-07-20T00:06:56;12.70;;;4.50;;
20870;SDS011;10595;51.218;3.452;2023-07-20T00:09:22;11.97;;;4.60;;
20870;SDS011;10595;51.218;3.452;2023-07-20T00:11:49;8.87;;;4.40;;
20870;SDS011;10595;51.218;3.452;2023-07-20T00:14:18;12.10;;;4.57;;
20870;SDS011;10595;51.218;3.452;2023-07-20T00:16:45;8.33;;;4.47;;
20870;SDS011;10595;51.218;3.452;2023-07-20T00:19:11;10.97;;;4.47;;
20870;SDS011;10595;51.218;3.452;2023-07-20T00:21:37;7.80;;;4.40;;
20870;SDS011;10595;51.218;3.452;2023-07-20T00:24:07;9.43;;;4.47;;
20870;SDS011;10595;51.218;3.452;2023-07-20T00:26:34;12.93;;;5.30;;
20870;SDS011;10595;51.218;3.452;2023-07-20T00:28:59;7.87;;;4.77;;
20870;SDS011;10595;51.218;3.452;2023-07-20T00:31:26;9.17;;;4.97;;
20870;SDS011;10595;51.218;3.452;2023-07-20T00:33:52;14.53;;;5.53;;
20870;SDS011;10595;51.218;3.452;2023-07-20T00:36:18;12.10;;;4.77;;
20870;SDS011;10595;51.218;3.452;2023-07-20T00:38:43;7.17;;;4.83;;
20870;SDS011;10595;51.218;3.452;2023-07-20T00:41:09;9.00;;;5.20;;
20870;SDS011;10595;51.218;3.452;2023-07-20T00:43:35;6.07;;;4.17;;
20870;SDS011;10595;51.218;3.452;2023-07-20T00:46:01;14.07;;;5.00;;
20870;SDS011;10595;51.218;3.452;2023-07-20T00:48:29;12.20;;;5.23;;
20870;SDS011;10595;51.218;3.452;2023-07-20T00:50:55;10.13;;;5.23;;
20870;SDS011;10595;51.218;3.452;2023-07-20T00:53:21;9.13;;;4.80;;
20870;SDS011;10595;51.218;3.452;2023-07-20T00:55:47;10.40;;;5.53;;
20870;SDS011;10595;51.218;3.452;2023-07-20T00:58:13;14.13;;;4.80;;
20870;SDS011;10595;51.218;3.452;2023-07-20T01:00:39;10.00;;;5.30;;
20870;SDS011;10595;51.218;3.452;2023-07-20T01:03:05;7.20;;;4.80;;
20870;SDS011;10595;51.218;3.452;2023-07-20T01:05:42;8.93;;;5.40;;
20870;SDS011;10595;51.218;3.452;2023-07-20T01:08:12;8.57;;;5.30;;
20870;SDS011;10595;51.218;3.452;2023-07-20T01:10:42;12.47;;;5.50;;
20870;SDS011;10595;51.218;3.452;2023-07-20T01:13:10;7.73;;;4.90;;
20870;SDS011;10595;51.218;3.452;2023-07-20T01:15:37;11.63;;;5.63;;
20870;SDS011;10595;51.218;3.452;2023-07-20T01:18:04;8.27;;;5.70;;
20870;SDS011;10595;51.218;3.452;2023-07-20T01:20:30;11.77;;;5.93;;
20870;SDS011;10595;51.218;3.452;2023-07-20T01:30:55;8.77;;;5.77;;
20870;SDS011;10595;51.218;3.452;2023-07-20T01:33:24;8.07;;;6.00;;
20870;SDS011;10595;51.218;3.452;2023-07-20T01:35:57;10.40;;;5.67;;
20870;SDS011;10595;51.218;3.452;2023-07-20T01:38:24;9.73;;;6.17;;
20870;SDS011;10595;51.218;3.452;2023-07-20T01:40:50;10.43;;;6.83;;
20870;SDS011;10595;51.218;3.452;2023-07-20T01:43:17;8.73;;;5.97;;
20870;SDS011;10595;51.218;3.452;2023-07-20T01:45:43;9.53;;;5.77;;
20870;SDS011;10595;51.218;3.452;2023-07-20T01:48:10;9.17;;;5.90;;
20870;SDS011;10595;51.218;3.452;2023-07-20T01:50:36;9.23;;;5.73;;
20870;SDS011;10595;51.218;3.452;2023-07-20T01:53:02;9.90;;;5.23;;
20870;SDS011;10595;51.218;3.452;2023-07-20T01:55:28;8.37;;;5.83;;
20870;SDS011;10595;51.218;3.452;2023-07-20T01:57:54;8.93;;;5.93;;
20870;SDS011;10595;51.218;3.452;2023-07-20T02:00:21;8.77;;;6.40;;
20870;SDS011;10595;51.218;3.452;2023-07-20T02:02:49;8.53;;;5.90;;
20870;SDS011;10595;51.218;3.452;2023-07-20T02:05:15;7.83;;;5.80;;
20870;SDS011;10595;51.218;3.452;2023-07-20T02:07:42;10.33;;;6.80;;
20870;SDS011;10595;51.218;3.452;2023-07-20T02:10:08;9.03;;;6.23;;
20870;SDS011;10595;51.218;3.452;2023-07-20T02:12:34;9.63;;;6.37;;
20870;SDS011;10595;51.218;3.452;2023-07-20T02:15:00;12.37;;;6.57;;
20870;SDS011;10595;51.218;3.452;2023-07-20T02:17:26;9.53;;;5.70;;
20870;SDS011;10595;51.218;3.452;2023-07-20T02:19:53;10.37;;;5.80;;
20870;SDS011;10595;51.218;3.452;2023-07-20T02:22:20;9.30;;;6.63;;
20870;SDS011;10595;51.218;3.452;2023-07-20T02:24:46;7.00;;;5.43;;
20870;SDS011;10595;51.218;3.452;2023-07-20T02:27:12;9.53;;;6.20;;
20870;SDS011;10595;51.218;3.452;2023-07-20T02:29:40;7.60;;;5.27;;
20870;SDS011;10595;51.218;3.452;2023-07-20T02:32:06;6.27;;;5.23;;
20870;SDS011;10595;51.218;3.452;2023-07-20T02:34:32;7.23;;;5.73;;
20870;SDS011;10595;51.218;3.452;2023-07-20T02:36:58;7.97;;;5.50;;
20870;SDS011;10595;51.218;3.452;2023-07-20T02:39:26;8.43;;;5.47;;
20870;SDS011;10595;51.218;3.452;2023-07-20T02:41:53;10.43;;;5.73;;
20870;SDS011;10595;51.218;3.452;2023-07-20T02:44:19;5.70;;;4.80;;
20870;SDS011;10595;51.218;3.452;2023-07-20T02:46:45;8.40;;;6.10;;
20870;SDS011;10595;51.218;3.452;2023-07-20T02:49:11;10.70;;;6.00;;
20870;SDS011;10595;51.218;3.452;2023-07-20T02:51:37;6.67;;;5.67;;
20870;SDS011;10595;51.218;3.452;2023-07-20T02:54:03;7.53;;;5.93;;
20870;SDS011;10595;51.218;3.452;2023-07-20T02:56:29;7.80;;;5.60;;
20870;SDS011;10595;51.218;3.452;2023-07-20T02:58:55;8.23;;;5.93;;
20870;SDS011;10595;51.218;3.452;2023-07-20T03:01:22;7.67;;;5.90;;
20870;SDS011;10595;51.218;3.452;2023-07-20T03:03:48;10.43;;;6.53;;
20870;SDS011;10595;51.218;3.452;2023-07-20T03:06:14;7.10;;;5.97;;
20870;SDS011;10595;51.218;3.452;2023-07-20T03:08:41;9.60;;;6.00;;
20870;SDS011;10595;51.218;3.452;2023-07-20T03:11:10;8.37;;;5.90;;
20870;SDS011;10595;51.218;3.452;2023-07-20T03:13:36;8.40;;;6.27;;
20870;SDS011;10595;51.218;3.452;2023-07-20T03:16:02;9.60;;;6.73;;
20870;SDS011;10595;51.218;3.452;2023-07-20T03:18:28;10.60;;;6.47;;
20870;SDS011;10595;51.218;3.452;2023-07-20T03:20:54;11.33;;;6.83;;
20870;SDS011;10595;51.218;3.452;2023-07-20T03:23:20;9.10;;;6.67;;
20870;SDS011;10595;51.218;3.452;2023-07-20T03:25:46;12.20;;;6.70;;
20870;SDS011;10595;51.218;3.452;2023-07-20T03:28:12;7.97;;;7.00;;
20870;SDS011;10595;51.218;3.452;2023-07-20T03:30:38;7.63;;;6.43;;
20870;SDS011;10595;51.218;3.452;2023-07-20T03:33:04;10.87;;;7.07;;
20870;SDS011;10595;51.218;3.452;2023-07-20T03:35:30;9.87;;;6.83;;
20870;SDS011;10595;51.218;3.452;2023-07-20T03:37:56;8.10;;;6.40;;
20870;SDS011;10595;51.218;3.452;2023-07-20T03:40:22;9.37;;;6.37;;
20870;SDS011;10595;51.218;3.452;2023-07-20T03:42:49;8.90;;;6.60;;
20870;SDS011;10595;51.218;3.452;2023-07-20T03:45:15;8.10;;;6.37;;
20870;SDS011;10595;51.218;3.452;2023-07-20T03:47:41;8.33;;;5.97;;
20870;SDS011;10595;51.218;3.452;2023-07-20T03:50:07;7.33;;;6.57;;
20870;SDS011;10595;51.218;3.452;2023-07-20T03:52:34;7.33;;;6.50;;
20870;SDS011;10595;51.218;3.452;2023-07-20T03:55:00;8.93;;;6.20;;
20870;SDS011;10595;51.218;3.452;2023-07-20T03:57:27;9.20;;;6.53;;
20870;SDS011;10595;51.218;3.452;2023-07-20T03:59:53;10.67;;;7.17;;
20870;SDS011;10595;51.218;3.452;2023-07-20T04:02:20;11.20;;;6.63;;
20870;SDS011;10595;51.218;3.452;2023-07-20T04:04:46;9.93;;;7.37;;
20870;SDS011;10595;51.218;3.452;2023-07-20T04:07:12;11.87;;;7.30;;
20870;SDS011;10595;51.218;3.452;2023-07-20T04:09:38;9.03;;;7.00;;
20870;SDS011;10595;51.218;3.452;2023-07-20T04:12:05;8.47;;;7.20;;
20870;SDS011;10595;51.218;3.452;2023-07-20T04:14:31;8.73;;;7.00;;
20870;SDS011;10595;51.218;3.452;2023-07-20T04:16:57;10.63;;;7.67;;
20870;SDS011;10595;51.218;3.452;2023-07-20T04:19:25;9.40;;;6.97;;
20870;SDS011;10595;51.218;3.452;2023-07-20T04:21:51;9.00;;;6.93;;
20870;SDS011;10595;51.218;3.452;2023-07-20T04:24:17;8.97;;;6.73;;
20870;SDS011;10595;51.218;3.452;2023-07-20T04:26:43;9.27;;;6.57;;
20870;SDS011;10595;51.218;3.452;2023-07-20T04:29:09;8.63;;;6.70;;
20870;SDS011;10595;51.218;3.452;2023-07-20T04:31:35;10.87;;;7.80;;
20870;SDS011;10595;51.218;3.452;2023-07-20T04:34:01;9.13;;;6.97;;
20870;SDS011;10595;51.218;3.452;2023-07-20T04:36:27;8.40;;;7.27;;
20870;SDS011;10595;51.218;3.452;2023-07-20T04:38:53;9.40;;;7.70;;
20870;SDS011;10595;51.218;3.452;2023-07-20T04:41:19;11.07;;;8.20;;
20870;SDS011;10595;51.218;3.452;2023-07-20T04:43:45;10.47;;;7.53;;
20870;SDS011;10595;51.218;3.452;2023-07-20T04:46:11;8.17;;;6.90;;
20870;SDS011;10595;51.218;3.452;2023-07-20T04:48:37;10.93;;;7.70;;
20870;SDS011;10595;51.218;3.452;2023-07-20T04:51:05;11.20;;;7.17;;
20870;SDS011;10595;51.218;3.452;2023-07-20T04:53:31;7.43;;;6.67;;
20870;SDS011;10595;51.218;3.452;2023-07-20T04:55:57;8.57;;;7.13;;
20870;SDS011;10595;51.218;3.452;2023-07-20T04:58:24;8.57;;;7.07;;
20870;SDS011;10595;51.218;3.452;2023-07-20T05:00:50;9.97;;;7.70;;
20870;SDS011;10595;51.218;3.452;2023-07-20T05:03:17;9.40;;;6.90;;
20870;SDS011;10595;51.218;3.452;2023-07-20T05:05:43;8.43;;;7.10;;
20870;SDS011;10595;51.218;3.452;2023-07-20T05:08:09;8.30;;;7.10;;
20870;SDS011;10595;51.218;3.452;2023-07-20T05:10:35;9.43;;;6.90;;
20870;SDS011;10595;51.218;3.452;2023-07-20T05:13:01;8.00;;;6.40;;
20870;SDS011;10595;51.218;3.452;2023-07-20T05:15:27;10.27;;;7.47;;
20870;SDS011;10595;51.218;3.452;2023-07-20T05:17:53;8.63;;;6.77;;
20870;SDS011;10595;51.218;3.452;2023-07-20T05:20:19;8.90;;;6.90;;
20870;SDS011;10595;51.218;3.452;2023-07-20T05:22:46;8.10;;;6.77;;
20870;SDS011;10595;51.218;3.452;2023-07-20T05:25:12;7.17;;;6.27;;
20870;SDS011;10595;51.218;3.452;2023-07-20T05:27:38;8.53;;;6.73;;
20870;SDS011;10595;51.218;3.452;2023-07-20T05:30:05;8.57;;;7.07;;
20870;SDS011;10595;51.218;3.452;2023-07-20T05:32:32;9.50;;;6.60;;
20870;SDS011;10595;51.218;3.452;2023-07-20T05:34:58;6.83;;;5.70;;
20870;SDS011;10595;51.218;3.452;2023-07-20T05:37:24;7.33;;;5.67;;
20870;SDS011;10595;51.218;3.452;2023-07-20T05:39:50;7.80;;;5.57;;
20870;SDS011;10595;51.218;3.452;2023-07-20T05:42:16;6.03;;;5.43;;
20870;SDS011;10595;51.218;3.452;2023-07-20T05:44:42;7.67;;;4.80;;
20870;SDS011;10595;51.218;3.452;2023-07-20T05:47:08;6.63;;;5.23;;
20870;SDS011;10595;51.218;3.452;2023-07-20T05:49:34;9.03;;;6.50;;
20870;SDS011;10595;51.218;3.452;2023-07-20T05:52:00;9.33;;;7.23;;
20870;SDS011;10595;51.218;3.452;2023-07-20T05:54:26;8.23;;;6.37;;
20870;SDS011;10595;51.218;3.452;2023-07-20T05:56:53;8.27;;;6.67;;
20870;SDS011;10595;51.218;3.452;2023-07-20T05:59:19;8.60;;;6.13;;
20870;SDS011;10595;51.218;3.452;2023-07-20T06:01:45;4.80;;;4.37;;
20870;SDS011;10595;51.218;3.452;2023-07-20T06:04:15;5.00;;;4.40;;
20870;SDS011;10595;51.218;3.452;2023-07-20T06:06:41;4.23;;;3.80;;
20870;SDS011;10595;51.218;3.452;2023-07-20T06:09:08;5.00;;;4.30;;
20870;SDS011;10595;51.218;3.452;2023-07-20T06:11:34;4.87;;;3.90;;
20870;SDS011;10595;51.218;3.452;2023-07-20T06:14:01;5.47;;;4.20;;
20870;SDS011;10595;51.218;3.452;2023-07-20T06:16:27;5.03;;;3.67;;
20870;SDS011;10595;51.218;3.452;2023-07-20T06:18:53;3.50;;;3.20;;
20870;SDS011;10595;51.218;3.452;2023-07-20T06:21:19;4.63;;;3.27;;
20870;SDS011;10595;51.218;3.452;2023-07-20T06:23:45;3.00;;;2.70;;
20870;SDS011;10595;51.218;3.452;2023-07-20T06:26:11;4.43;;;2.40;;
20870;SDS011;10595;51.218;3.452;2023-07-20T06:28:37;2.87;;;2.27;;
20870;SDS011;10595;51.218;3.452;2023-07-20T06:31:03;3.43;;;2.27;;
20870;SDS011;10595;51.218;3.452;2023-07-20T06:33:29;2.73;;;2.20;;
20870;SDS011;10595;51.218;3.452;2023-07-20T06:35:55;2.63;;;2.20;;
20870;SDS011;10595;51.218;3.452;2023-07-20T06:38:24;1.93;;;1.80;;
20870;SDS011;10595;51.218;3.452;2023-07-20T06:40:50;2.30;;;1.97;;
20870;SDS011;10595;51.218;3.452;2023-07-20T06:43:17;2.50;;;2.30;;
20870;SDS011;10595;51.218;3.452;2023-07-20T06:45:43;1.90;;;1.70;;
20870;SDS011;10595;51.218;3.452;2023-07-20T06:48:09;1.97;;;1.40;;
20870;SDS011;10595;51.218;3.452;2023-07-20T06:50:35;1.70;;;1.60;;
20870;SDS011;10595;51.218;3.452;2023-07-20T06:53:01;1.73;;;1.27;;
20870;SDS011;10595;51.218;3.452;2023-07-20T06:55:30;1.43;;;1.10;;
20870;SDS011;10595;51.218;3.452;2023-07-20T06:57:56;1.50;;;1.40;;
20870;SDS011;10595;51.218;3.452;2023-07-20T07:00:22;1.50;;;0.93;;
20870;SDS011;10595;51.218;3.452;2023-07-20T07:02:48;1.27;;;1.20;;
20870;SDS011;10595;51.218;3.452;2023-07-20T07:05:14;2.10;;;1.90;;
20870;SDS011;10595;51.218;3.452;2023-07-20T07:07:40;1.60;;;1.50;;
20870;SDS011;10595;51.218;3.452;2023-07-20T07:10:07;1.50;;;1.40;;
20870;SDS011;10595;51.218;3.452;2023-07-20T07:12:33;2.73;;;1.50;;
20870;SDS011;10595;51.218;3.452;2023-07-20T07:15:00;2.37;;;1.57;;
20870;SDS011;10595;51.218;3.452;2023-07-20T07:17:26;2.53;;;1.37;;
20870;SDS011;10595;51.218;3.452;2023-07-20T07:19:52;2.97;;;1.00;;
20870;SDS011;10595;51.218;3.452;2023-07-20T07:22:20;0.40;;;0.40;;
20870;SDS011;10595;51.218;3.452;2023-07-20T07:24:49;1.73;;;0.60;;
20870;SDS011;10595;51.218;3.452;2023-07-20T07:27:15;1.87;;;0.60;;
20870;SDS011;10595;51.218;3.452;2023-07-20T07:29:41;0.80;;;0.40;;
20870;SDS011;10595;51.218;3.452;2023-07-20T07:32:11;0.53;;;0.50;;
20870;SDS011;10595;51.218;3.452;2023-07-20T07:34:37;1.33;;;0.60;;
20870;SDS011;10595;51.218;3.452;2023-07-20T07:37:06;1.37;;;0.50;;
20870;SDS011;10595;51.218;3.452;2023-07-20T07:39:32;0.40;;;0.40;;
20870;SDS011;10595;51.218;3.452;2023-07-20T07:41:58;0.77;;;0.60;;
20870;SDS011;10595;51.218;3.452;2023-07-20T07:44:25;0.70;;;0.50;;
20870;SDS011;10595;51.218;3.452;2023-07-20T07:46:52;1.90;;;0.47;;
20870;SDS011;10595;51.218;3.452;2023-07-20T07:49:18;1.27;;;0.80;;
20870;SDS011;10595;51.218;3.452;2023-07-20T07:51:44;1.27;;;0.60;;
20870;SDS011;10595;51.218;3.452;2023-07-20T07:54:11;1.43;;;0.60;;
20870;SDS011;10595;51.218;3.452;2023-07-20T07:56:37;1.20;;;0.50;;
20870;SDS011;10595;51.218;3.452;2023-07-20T07:59:03;1.20;;;0.50;;
20870;SDS011;10595;51.218;3.452;2023-07-20T08:01:29;0.93;;;0.77;;
20870;SDS011;10595;51.218;3.452;2023-07-20T08:03:55;4.13;;;1.40;;
20870;SDS011;10595;51.218;3.452;2023-07-20T08:06:22;2.87;;;1.90;;
20870;SDS011;10595;51.218;3.452;2023-07-20T08:08:49;1.93;;;1.20;;
20870;SDS011;10595;51.218;3.452;2023-07-20T08:11:15;0.63;;;0.50;;
20870;SDS011;10595;51.218;3.452;2023-07-20T08:13:42;1.17;;;0.60;;
20870;SDS011;10595;51.218;3.452;2023-07-20T08:16:08;2.80;;;0.70;;
20870;SDS011;10595;51.218;3.452;2023-07-20T08:18:35;2.13;;;0.60;;
20870;SDS011;10595;51.218;3.452;2023-07-20T08:21:01;0.60;;;0.60;;
20870;SDS011;10595;51.218;3.452;2023-07-20T08:23:27;0.50;;;0.50;;
20870;SDS011;10595;51.218;3.452;2023-07-20T08:25:54;0.47;;;0.47;;
20870;SDS011;10595;51.218;3.452;2023-07-20T08:28:20;1.57;;;0.80;;
20870;SDS011;10595;51.218;3.452;2023-07-20T08:30:46;4.50;;;0.73;;
20870;SDS011;10595;51.218;3.452;2023-07-20T08:33:13;2.13;;;0.47;;
20870;SDS011;10595;51.218;3.452;2023-07-20T08:35:39;0.60;;;0.60;;
20870;SDS011;10595;51.218;3.452;2023-07-20T08:38:05;1.27;;;0.80;;
20870;SDS011;10595;51.218;3.452;2023-07-20T08:40:33;2.37;;;0.80;;
20870;SDS011;10595;51.218;3.452;2023-07-20T08:42:59;0.70;;;0.60;;
20870;SDS011;10595;51.218;3.452;2023-07-20T08:45:26;0.80;;;0.60;;
20870;SDS011;10595;51.218;3.452;2023-07-20T08:47:57;0.93;;;0.70;;
20870;SDS011;10595;51.218;3.452;2023-07-20T08:50:25;0.80;;;0.80;;
20870;SDS011;10595;51.218;3.452;2023-07-20T08:52:51;0.60;;;0.60;;
20870;SDS011;10595;51.218;3.452;2023-07-20T08:55:20;0.80;;;0.80;;
20870;SDS011;10595;51.218;3.452;2023-07-20T08:57:47;0.93;;;0.80;;
20870;SDS011;10595;51.218;3.452;2023-07-20T09:00:14;1.03;;;0.70;;
20870;SDS011;10595;51.218;3.452;2023-07-20T09:02:40;0.80;;;0.70;;
20870;SDS011;10595;51.218;3.452;2023-07-20T09:05:07;2.00;;;0.93;;
20870;SDS011;10595;51.218;3.452;2023-07-20T09:07:35;1.17;;;1.00;;
20870;SDS011;10595;51.218;3.452;2023-07-20T09:10:01;1.33;;;1.00;;
20870;SDS011;10595;51.218;3.452;2023-07-20T09:12:40;0.80;;;0.80;;
20870;SDS011;10595;51.218;3.452;2023-07-20T09:15:07;1.50;;;0.90;;
20870;SDS011;10595;51.218;3.452;2023-07-20T09:17:33;1.90;;;1.20;;
20870;SDS011;10595;51.218;3.452;2023-07-20T09:20:03;0.80;;;0.80;;
20870;SDS011;10595;51.218;3.452;2023-07-20T09:22:35;0.73;;;0.73;;
20870;SDS011;10595;51.218;3.452;2023-07-20T09:25:05;1.47;;;0.57;;
20870;SDS011;10595;51.218;3.452;2023-07-20T09:27:35;1.00;;;0.90;;
20870;SDS011;10595;51.218;3.452;2023-07-20T09:30:02;2.43;;;0.87;;
20870;SDS011;10595;51.218;3.452;2023-07-20T09:32:28;0.67;;;0.60;;
20870;SDS011;10595;51.218;3.452;2023-07-20T09:34:54;0.90;;;0.70;;
20870;SDS011;10595;51.218;3.452;2023-07-20T09:37:21;5.97;;;2.47;;
20870;SDS011;10595;51.218;3.452;2023-07-20T09:39:47;0.80;;;0.80;;
20870;SDS011;10595;51.218;3.452;2023-07-20T09:42:14;1.53;;;0.60;;
20870;SDS011;10595;51.218;3.452;2023-07-20T09:44:43;0.83;;;0.70;;
20870;SDS011;10595;51.218;3.452;2023-07-20T09:47:09;1.00;;;0.70;;
20870;SDS011;10595;51.218;3.452;2023-07-20T09:49:41;1.57;;;0.90;;
20870;SDS011;10595;51.218;3.452;2023-07-20T09:52:11;1.37;;;0.70;;
20870;SDS011;10595;51.218;3.452;2023-07-20T09:54:38;1.77;;;0.80;;
20870;SDS011;10595;51.218;3.452;2023-07-20T09:57:06;0.80;;;0.80;;
20870;SDS011;10595;51.218;3.452;2023-07-20T09:59:37;0.70;;;0.50;;
20870;SDS011;10595;51.218;3.452;2023-07-20T10:02:05;0.60;;;0.60;;
20870;SDS011;10595;51.218;3.452;2023-07-20T10:04:36;1.80;;;0.87;;
20870;SDS011;10595;51.218;3.452;2023-07-20T10:07:02;1.17;;;0.80;;
20870;SDS011;10595;51.218;3.452;2023-07-20T10:09:31;1.43;;;0.83;;
20870;SDS011;10595;51.218;3.452;2023-07-20T10:11:57;2.47;;;0.90;;
20870;SDS011;10595;51.218;3.452;2023-07-20T10:14:25;2.00;;;0.87;;
20870;SDS011;10595;51.218;3.452;2023-07-20T10:16:54;1.93;;;0.97;;
20870;SDS011;10595;51.218;3.452;2023-07-20T10:19:25;1.13;;;0.67;;
20870;SDS011;10595;51.218;3.452;2023-07-20T10:22:07;1.67;;;0.60;;
20870;SDS011;10595;51.218;3.452;2023-07-20T10:24:36;1.67;;;0.80;;
20870;SDS011;10595;51.218;3.452;2023-07-20T10:27:02;1.97;;;0.83;;
20870;SDS011;10595;51.218;3.452;2023-07-20T10:29:29;1.50;;;1.03;;
20870;SDS011;10595;51.218;3.452;2023-07-20T10:31:55;1.57;;;0.90;;
20870;SDS011;10595;51.218;3.452;2023-07-20T10:34:22;0.70;;;0.70;;
20870;SDS011;10595;51.218;3.452;2023-07-20T10:36:48;0.80;;;0.80;;
20870;SDS011;10595;51.218;3.452;2023-07-20T10:39:26;0.90;;;0.90;;
20870;SDS011;10595;51.218;3.452;2023-07-20T10:42:02;1.00;;;1.00;;
20870;SDS011;10595;51.218;3.452;2023-07-20T10:44:29;1.33;;;1.10;;
20870;SDS011;10595;51.218;3.452;2023-07-20T10:46:59;2.40;;;1.10;;
20870;SDS011;10595;51.218;3.452;2023-07-20T10:49:25;3.30;;;0.90;;
20870;SDS011;10595;51.218;3.452;2023-07-20T10:51:56;2.23;;;1.00;;
20870;SDS011;10595;51.218;3.452;2023-07-20T10:56:49;1.03;;;1.00;;
20870;SDS011;10595;51.218;3.452;2023-07-20T10:59:19;1.43;;;0.80;;
20870;SDS011;10595;51.218;3.452;2023-07-20T11:01:46;1.70;;;0.90;;
20870;SDS011;10595;51.218;3.452;2023-07-20T11:04:12;0.77;;;0.77;;
20870;SDS011;10595;51.218;3.452;2023-07-20T11:06:42;1.57;;;1.20;;
20870;SDS011;10595;51.218;3.452;2023-07-20T11:09:09;2.07;;;1.10;;
20870;SDS011;10595;51.218;3.452;2023-07-20T11:11:46;1.73;;;0.97;;
20870;SDS011;10595;51.218;3.452;2023-07-20T11:14:25;0.80;;;0.80;;
20870;SDS011;10595;51.218;3.452;2023-07-20T11:16:52;0.80;;;0.80;;
20870;SDS011;10595;51.218;3.452;2023-07-20T11:19:21;0.90;;;0.90;;
20870;SDS011;10595;51.218;3.452;2023-07-20T11:21:52;2.42;;;1.05;;
20870;SDS011;10595;51.218;3.452;2023-07-20T11:24:18;0.93;;;0.90;;
20870;SDS011;10595;51.218;3.452;2023-07-20T11:26:46;2.13;;;1.13;;
20870;SDS011;10595;51.218;3.452;2023-07-20T11:29:12;1.43;;;1.17;;
20870;SDS011;10595;51.218;3.452;2023-07-20T11:31:39;2.90;;;1.13;;
20870;SDS011;10595;51.218;3.452;2023-07-20T11:34:06;2.42;;;1.23;;
20870;SDS011;10595;51.218;3.452;2023-07-20T11:36:33;1.77;;;1.42;;
20870;SDS011;10595;51.218;3.452;2023-07-20T11:38:59;2.33;;;0.98;;
20870;SDS011;10595;51.218;3.452;2023-07-20T11:41:25;1.42;;;1.10;;
20870;SDS011;10595;51.218;3.452;2023-07-20T11:43:52;1.10;;;1.00;;
20870;SDS011;10595;51.218;3.452;2023-07-20T11:46:18;1.43;;;1.00;;
20870;SDS011;10595;51.218;3.452;2023-07-20T11:48:44;2.20;;;1.10;;
20870;SDS011;10595;51.218;3.452;2023-07-20T11:51:14;2.17;;;1.57;;
20870;SDS011;10595;51.218;3.452;2023-07-20T11:53:41;2.30;;;1.17;;
20870;SDS011;10595;51.218;3.452;2023-07-20T11:56:07;1.17;;;1.07;;
20870;SDS011;10595;51.218;3.452;2023-07-20T11:58:33;1.83;;;1.30;;
20870;SDS011;10595;51.218;3.452;2023-07-20T12:00:59;2.10;;;1.13;;
20870;SDS011;10595;51.218;3.452;2023-07-20T12:03:26;1.27;;;1.10;;
20870;SDS011;10595;51.218;3.452;2023-07-20T12:05:52;2.00;;;1.23;;
20870;SDS011;10595;51.218;3.452;2023-07-20T12:08:18;1.40;;;1.30;;
20870;SDS011;10595;51.218;3.452;2023-07-20T12:10:44;3.13;;;1.53;;
20870;SDS011;10595;51.218;3.452;2023-07-20T12:13:11;2.33;;;1.30;;
20870;SDS011;10595;51.218;3.452;2023-07-20T12:15:37;2.33;;;1.00;;
20870;SDS011;10595;51.218;3.452;2023-07-20T12:18:04;1.33;;;1.23;;
20870;SDS011;10595;51.218;3.452;2023-07-20T12:20:34;2.73;;;1.13;;
20870;SDS011;10595;51.218;3.452;2023-07-20T12:25:36;2.03;;;1.53;;
20870;SDS011;10595;51.218;3.452;2023-07-20T12:28:09;3.33;;;1.30;;
20870;SDS011;10595;51.218;3.452;2023-07-20T12:30:36;1.97;;;1.33;;
20870;SDS011;10595;51.218;3.452;2023-07-20T12:33:03;1.57;;;1.47;;
20870;SDS011;10595;51.218;3.452;2023-07-20T12:35:29;1.77;;;1.50;;
20870;SDS011;10595;51.218;3.452;2023-07-20T12:37:56;1.83;;;1.57;;
20870;SDS011;10595;51.218;3.452;2023-07-20T12:40:22;2.33;;;1.70;;
20870;SDS011;10595;51.218;3.452;2023-07-20T12:42:48;2.53;;;2.33;;
20870;SDS011;10595;51.218;3.452;2023-07-20T12:45:14;2.63;;;2.40;;
20870;SDS011;10595;51.218;3.452;2023-07-20T12:47:41;7.10;;;3.33;;
20870;SDS011;10595;51.218;3.452;2023-07-20T12:50:09;3.80;;;3.50;;
20870;SDS011;10595;51.218;3.452;2023-07-20T12:52:38;4.63;;;4.10;;
20870;SDS011;10595;51.218;3.452;2023-07-20T12:55:05;4.00;;;3.60;;
20870;SDS011;10595;51.218;3.452;2023-07-20T12:57:31;4.80;;;4.40;;
20870;SDS011;10595;51.218;3.452;2023-07-20T12:59:57;4.80;;;4.33;;
20870;SDS011;10595;51.218;3.452;2023-07-20T13:02:23;4.70;;;4.30;;
20870;SDS011;10595;51.218;3.452;2023-07-20T13:04:49;6.13;;;4.77;;
20870;SDS011;10595;51.218;3.452;2023-07-20T13:07:15;5.20;;;4.70;;
20870;SDS011;10595;51.218;3.452;2023-07-20T13:09:41;5.90;;;4.60;;
20870;SDS011;10595;51.218;3.452;2023-07-20T13:12:07;6.37;;;4.67;;
20870;SDS011;10595;51.218;3.452;2023-07-20T13:14:34;5.40;;;4.90;;
20870;SDS011;10595;51.218;3.452;2023-07-20T13:17:00;6.47;;;5.43;;
20870;SDS011;10595;51.218;3.452;2023-07-20T13:19:25;5.23;;;4.70;;
20870;SDS011;10595;51.218;3.452;2023-07-20T13:21:52;5.90;;;5.10;;
20870;SDS011;10595;51.218;3.452;2023-07-20T13:24:18;5.17;;;4.67;;
20870;SDS011;10595;51.218;3.452;2023-07-20T13:26:44;7.07;;;5.10;;
20870;SDS011;10595;51.218;3.452;2023-07-20T13:29:10;5.70;;;5.20;;
20870;SDS011;10595;51.218;3.452;2023-07-20T13:31:36;5.63;;;5.07;;
20870;SDS011;10595;51.218;3.452;2023-07-20T13:34:02;5.97;;;4.90;;
20870;SDS011;10595;51.218;3.452;2023-07-20T13:36:28;5.90;;;5.30;;
20870;SDS011;10595;51.218;3.452;2023-07-20T13:38:54;6.90;;;5.70;;
20870;SDS011;10595;51.218;3.452;2023-07-20T13:41:20;5.80;;;5.40;;
20870;SDS011;10595;51.218;3.452;2023-07-20T13:43:47;5.70;;;5.20;;
20870;SDS011;10595;51.218;3.452;2023-07-20T13:46:13;6.23;;;5.10;;
20870;SDS011;10595;51.218;3.452;2023-07-20T13:48:39;5.57;;;5.07;;
20870;SDS011;10595;51.218;3.452;2023-07-20T13:51:05;5.67;;;5.17;;
20870;SDS011;10595;51.218;3.452;2023-07-20T13:53:31;5.70;;;5.03;;
20870;SDS011;10595;51.218;3.452;2023-07-20T13:55:57;5.87;;;5.37;;
20870;SDS011;10595;51.218;3.452;2023-07-20T13:58:24;6.13;;;5.03;;
20870;SDS011;10595;51.218;3.452;2023-07-20T14:00:50;6.13;;;5.23;;
20870;SDS011;10595;51.218;3.452;2023-07-20T14:03:16;6.63;;;5.60;;
20870;SDS011;10595;51.218;3.452;2023-07-20T14:05:42;5.50;;;5.00;;
20870;SDS011;10595;51.218;3.452;2023-07-20T14:08:08;5.57;;;5.07;;
20870;SDS011;10595;51.218;3.452;2023-07-20T14:10:35;5.90;;;4.30;;
20870;SDS011;10595;51.218;3.452;2023-07-20T14:13:01;5.47;;;4.97;;
20870;SDS011;10595;51.218;3.452;2023-07-20T14:15:27;5.13;;;4.70;;
20870;SDS011;10595;51.218;3.452;2023-07-20T14:17:53;5.73;;;4.50;;
20870;SDS011;10595;51.218;3.452;2023-07-20T14:20:19;6.03;;;5.50;;
20870;SDS011;10595;51.218;3.452;2023-07-20T14:22:45;5.23;;;4.73;;
20870;SDS011;10595;51.218;3.452;2023-07-20T14:25:12;6.20;;;5.60;;
20870;SDS011;10595;51.218;3.452;2023-07-20T14:27:38;4.90;;;4.27;;
20870;SDS011;10595;51.218;3.452;2023-07-20T14:30:05;5.50;;;5.00;;
20870;SDS011;10595;51.218;3.452;2023-07-20T14:32:31;5.87;;;4.70;;
20870;SDS011;10595;51.218;3.452;2023-07-20T14:34:58;6.27;;;5.67;;
20870;SDS011;10595;51.218;3.452;2023-07-20T14:37:24;5.20;;;4.70;;
20870;SDS011;10595;51.218;3.452;2023-07-20T14:39:50;5.47;;;4.97;;
20870;SDS011;10595;51.218;3.452;2023-07-20T14:42:17;4.97;;;4.47;;
20870;SDS011;10595;51.218;3.452;2023-07-20T14:44:43;5.50;;;4.70;;
20870;SDS011;10595;51.218;3.452;2023-07-20T14:47:09;5.73;;;4.23;;
20870;SDS011;10595;51.218;3.452;2023-07-20T14:49:35;5.73;;;4.53;;
20870;SDS011;10595;51.218;3.452;2023-07-20T14:52:02;4.73;;;4.03;;
20870;SDS011;10595;51.218;3.452;2023-07-20T14:54:28;4.30;;;3.90;;
20870;SDS011;10595;51.218;3.452;2023-07-20T14:56:54;5.37;;;4.30;;